Terminal Aerodrome Forecast
Issued by NWS

Home | Current Version | Previous Version | Text Only | Print | Product List | Glossary On
Versions: 1 2 3 4 5 6 7 8 9 10 11 12 13 14 15 16 17 18 19 20
000
FTUS44 KBMX 190520
TAFMGM
TAF
KMGM 190520Z 1906/2006 20005KT P6SM SCT015 BKN035
     FM190700 15005KT P6SM VCSH BKN025
     FM191000 18008KT 4SM BR OVC007
     FM191500 21009KT P6SM OVC015
     FM191800 20007KT P6SM OVC050
     FM192100 23009KT P6SM OVC250=

USA.gov is the U.S. government's official web portal to all federal, state and local government web resources and services.